createdAt,value
2023-03-03T00:02:37.398Z,17.77
2023-03-03T00:06:01.354Z,16.20
2023-03-03T00:09:01.347Z,14.45
2023-03-03T00:12:26.391Z,14.20
2023-03-03T00:15:41.440Z,14.40
2023-03-03T00:19:06.402Z,16.30
2023-03-03T00:22:18.453Z,14.30
2023-03-03T00:25:46.369Z,15.43
2023-03-03T00:29:01.431Z,15.80
2023-03-03T00:32:30.398Z,15.63
2023-03-03T00:35:43.488Z,16.20
2023-03-03T00:39:07.508Z,15.40
2023-03-03T00:42:34.436Z,13.03
2023-03-03T00:45:59.475Z,16.10
2023-03-03T00:49:13.535Z,12.40
2023-03-03T00:52:38.477Z,13.90
2023-03-03T00:55:38.540Z,14.67
2023-03-03T00:58:50.491Z,14.87
2023-03-03T01:02:02.553Z,12.10
2023-03-03T01:05:28.524Z,13.87
2023-03-03T01:08:40.552Z,13.67
2023-03-03T01:11:52.560Z,16.73
2023-03-03T01:15:04.610Z,12.30
2023-03-03T01:18:28.569Z,17.25
2023-03-03T01:21:42.564Z,12.17
2023-03-03T01:24:54.671Z,11.40
2023-03-03T01:27:54.637Z,14.53
2023-03-03T01:31:08.656Z,12.95
2023-03-03T01:34:08.645Z,13.27
2023-03-03T01:37:35.693Z,13.77
2023-03-03T01:40:47.588Z,13.40
2023-03-03T01:44:11.633Z,13.70
2023-03-03T01:47:35.684Z,14.20
2023-03-03T01:51:00.681Z,14.37
2023-03-03T01:54:17.724Z,13.05
2023-03-03T01:57:42.767Z,11.37
2023-03-03T02:01:06.753Z,12.15
2023-03-03T02:04:34.733Z,14.20
2023-03-03T02:07:46.742Z,11.60
2023-03-03T02:11:12.752Z,14.15
2023-03-03T02:14:39.804Z,11.90
2023-03-03T02:17:51.776Z,15.20
2023-03-03T02:21:18.723Z,13.75
2023-03-03T02:24:30.815Z,13.85
2023-03-03T02:27:56.805Z,14.17
2023-03-03T02:31:08.840Z,14.35
2023-03-03T02:34:25.788Z,15.25
2023-03-03T02:37:25.838Z,13.80
2023-03-03T02:40:52.856Z,12.73
2023-03-03T02:44:06.867Z,13.60
2023-03-03T02:47:19.815Z,12.75
2023-03-03T02:50:31.841Z,11.55
2023-03-03T02:53:44.842Z,12.33
2023-03-03T02:57:08.844Z,12.67
2023-03-03T03:00:36.969Z,12.85
2023-03-03T03:03:48.957Z,10.55
2023-03-03T03:07:12.877Z,12.23
2023-03-03T03:10:24.948Z,10.05
2023-03-03T03:13:37.991Z,13.17
2023-03-03T03:17:03.925Z,9.53
2023-03-03T03:20:28.967Z,11.90
2023-03-03T03:23:41.028Z,11.80
2023-03-03T03:26:53.961Z,11.90
2023-03-03T03:30:05.941Z,11.80
2023-03-03T03:33:33.016Z,11.30
2023-03-03T03:36:44.920Z,10.60
2023-03-03T03:39:57.001Z,15.33
2023-03-03T03:42:57.012Z,12.57
2023-03-03T03:46:22.050Z,10.97
2023-03-03T03:49:48.032Z,11.93
2023-03-03T03:53:04.081Z,11.35
2023-03-03T03:56:28.064Z,12.33
2023-03-03T03:59:41.103Z,12.60
2023-03-03T04:02:41.167Z,10.03
2023-03-03T04:06:08.064Z,11.45
2023-03-03T04:09:32.086Z,10.83
2023-03-03T04:12:48.144Z,11.33
2023-03-03T04:16:00.137Z,10.37
2023-03-03T04:19:25.121Z,7.80
2023-03-03T04:22:50.148Z,8.83
2023-03-03T04:26:17.124Z,10.80
2023-03-03T04:29:30.200Z,9.13
2023-03-03T04:32:46.124Z,9.93
2023-03-03T04:36:01.265Z,9.53
2023-03-03T04:39:30.211Z,11.73
2023-03-03T04:42:42.233Z,8.30
2023-03-03T04:45:54.284Z,10.50
2023-03-03T04:49:08.250Z,10.37
2023-03-03T04:52:19.275Z,7.70
2023-03-03T04:55:45.291Z,9.90
2023-03-03T04:58:57.222Z,9.65
2023-03-03T05:01:57.362Z,8.30
2023-03-03T05:05:09.234Z,8.67
2023-03-03T05:08:15.296Z,7.23
2023-03-03T05:11:41.319Z,7.20
2023-03-03T05:14:41.317Z,7.17
2023-03-03T05:17:55.308Z,9.17
2023-03-03T05:20:56.330Z,7.90
2023-03-03T05:24:08.337Z,7.27
2023-03-03T05:27:21.318Z,9.60
2023-03-03T05:30:45.349Z,7.83
2023-03-03T05:33:48.340Z,6.60
2023-03-03T05:37:03.438Z,6.95
2023-03-03T05:40:15.578Z,7.90
2023-03-03T05:43:41.408Z,7.83
2023-03-03T05:46:41.412Z,7.05
2023-03-03T05:49:53.377Z,7.55
2023-03-03T05:53:05.450Z,6.70
2023-03-03T05:56:32.434Z,6.03
2023-03-03T05:59:46.385Z,6.03
2023-03-03T06:03:11.584Z,8.10
2023-03-03T06:06:23.456Z,8.20
2023-03-03T06:09:23.516Z,7.77
2023-03-03T06:12:36.494Z,8.50
2023-03-03T06:15:50.513Z,7.73
2023-03-03T06:19:02.492Z,7.73
2023-03-03T06:22:14.612Z,7.30
2023-03-03T06:25:38.478Z,7.27
2023-03-03T06:28:38.563Z,6.00
2023-03-03T06:32:06.644Z,6.90
2023-03-03T06:35:06.536Z,5.40
2023-03-03T06:38:18.478Z,8.05
2023-03-03T06:41:21.616Z,6.30
2023-03-03T06:44:33.574Z,6.60
2023-03-03T06:47:47.583Z,7.05
2023-03-03T06:50:59.610Z,7.13
2023-03-03T06:54:12.632Z,7.80
2023-03-03T06:57:39.653Z,7.07
2023-03-03T07:00:52.672Z,6.45
2023-03-03T07:04:18.674Z,8.65
2023-03-03T07:07:30.659Z,6.93
2023-03-03T07:10:54.652Z,6.05
2023-03-03T07:14:07.652Z,7.53
2023-03-03T07:17:34.714Z,6.90
2023-03-03T07:20:48.686Z,7.37
2023-03-03T07:24:12.778Z,7.50
2023-03-03T07:27:24.747Z,7.47
2023-03-03T07:30:50.740Z,7.00
2023-03-03T07:34:02.731Z,6.47
2023-03-03T07:37:28.695Z,8.17
2023-03-03T07:40:48.784Z,7.33
2023-03-03T07:44:13.782Z,8.00
2023-03-03T07:47:25.742Z,8.27
2023-03-03T07:50:37.825Z,8.55
2023-03-03T07:53:51.801Z,6.60
2023-03-03T07:57:16.845Z,8.77
2023-03-03T08:00:35.871Z,7.55
2023-03-03T08:04:00.944Z,6.65
2023-03-03T08:07:13.869Z,7.03
2023-03-03T08:10:48.954Z,8.83
2023-03-03T08:14:00.870Z,7.60
2023-03-03T08:17:25.894Z,9.23
2023-03-03T08:20:53.832Z,7.35
2023-03-03T08:24:05.873Z,7.30
2023-03-03T08:27:19.952Z,7.40
2023-03-03T08:30:32.927Z,6.77
2023-03-03T08:33:32.894Z,6.53
2023-03-03T08:36:56.899Z,7.93
2023-03-03T08:40:03.935Z,7.67
2023-03-03T08:43:30.009Z,7.80
2023-03-03T08:46:29.934Z,7.80
2023-03-03T08:49:44.915Z,5.90
2023-03-03T08:52:44.942Z,5.25
2023-03-03T08:56:10.025Z,8.50
2023-03-03T08:59:22.989Z,6.73
2023-03-03T09:02:37.974Z,7.53
2023-03-03T09:05:49.996Z,7.30
2023-03-03T09:09:16.978Z,7.00
2023-03-03T09:12:31.004Z,6.35
2023-03-03T09:15:57.387Z,6.75
2023-03-03T09:18:57.015Z,8.13
2023-03-03T09:22:22.014Z,7.27
2023-03-03T09:25:43.175Z,6.57
2023-03-03T09:28:56.111Z,6.67
2023-03-03T09:32:10.115Z,9.17
2023-03-03T09:35:41.163Z,6.73
2023-03-03T09:38:54.089Z,7.25
2023-03-03T09:42:30.141Z,8.53
2023-03-03T09:46:09.218Z,6.87
2023-03-03T09:49:36.152Z,7.05
2023-03-03T09:52:50.102Z,5.70
2023-03-03T09:56:15.178Z,7.53
2023-03-03T09:59:33.234Z,6.95
2023-03-03T10:03:03.214Z,5.85
2023-03-03T10:06:29.168Z,6.43
2023-03-03T10:09:49.691Z,6.40
2023-03-03T10:13:14.186Z,6.47
2023-03-03T10:16:35.317Z,7.95
2023-03-03T10:20:03.264Z,5.95
2023-03-03T10:23:17.251Z,6.97
2023-03-03T10:26:45.808Z,6.47
2023-03-03T10:29:59.302Z,5.60
2023-03-03T10:33:23.401Z,5.60
2023-03-03T10:36:44.323Z,6.10
2023-03-03T10:40:16.244Z,5.90
2023-03-03T10:43:34.340Z,4.60
2023-03-03T10:47:01.444Z,5.65
2023-03-03T10:50:16.358Z,5.33
2023-03-03T10:53:42.351Z,3.80
2023-03-03T10:57:04.540Z,4.77
2023-03-03T11:00:41.373Z,5.07
2023-03-03T11:04:03.385Z,7.10
2023-03-03T11:07:28.458Z,5.00
2023-03-03T11:10:43.408Z,5.00
2023-03-03T11:14:10.375Z,5.70
2023-03-03T11:17:25.417Z,3.90
2023-03-03T11:20:51.424Z,6.83
2023-03-03T11:24:20.382Z,5.75
2023-03-03T11:27:47.503Z,4.20
2023-03-03T11:31:02.526Z,5.07
2023-03-03T11:34:31.546Z,5.03
2023-03-03T11:37:44.460Z,4.97
2023-03-03T11:41:10.454Z,4.75
2023-03-03T11:44:22.459Z,5.43
2023-03-03T11:47:49.506Z,4.40
2023-03-03T11:51:01.497Z,4.40
2023-03-03T11:54:26.511Z,7.70
2023-03-03T11:57:40.488Z,4.57
2023-03-03T12:01:04.601Z,5.03
2023-03-03T12:04:30.538Z,6.10
2023-03-03T12:07:44.568Z,4.35
2023-03-03T12:11:08.637Z,3.60
2023-03-03T12:14:23.617Z,4.37
2023-03-03T12:17:50.812Z,4.97
2023-03-03T12:21:04.641Z,5.37
2023-03-03T12:24:37.603Z,3.87
2023-03-03T12:27:51.674Z,4.00
2023-03-03T12:31:26.703Z,4.85
2023-03-03T12:34:42.680Z,3.67
2023-03-03T12:38:18.726Z,4.43
2023-03-03T12:41:33.730Z,4.37
2023-03-03T12:44:58.677Z,3.60
2023-03-03T12:48:11.721Z,4.75
2023-03-03T12:51:39.792Z,3.07
2023-03-03T12:55:01.726Z,2.90
2023-03-03T12:58:27.704Z,3.80
2023-03-03T13:01:41.742Z,2.47
2023-03-03T13:05:05.806Z,4.00
2023-03-03T13:08:20.873Z,2.83
2023-03-03T13:11:53.007Z,3.43
2023-03-03T13:15:04.797Z,2.30
2023-03-03T13:18:31.847Z,2.47
2023-03-03T13:21:44.786Z,1.83
2023-03-03T13:25:10.824Z,2.00
2023-03-03T13:28:24.854Z,2.70
2023-03-03T13:31:57.965Z,2.77
2023-03-03T13:35:09.810Z,2.00
2023-03-03T13:38:36.830Z,2.03
2023-03-03T13:41:54.898Z,1.97
2023-03-03T13:45:19.862Z,1.77
2023-03-03T13:48:33.897Z,1.87
2023-03-03T13:51:59.947Z,1.60
2023-03-03T13:55:16.861Z,2.20
2023-03-03T13:58:41.906Z,2.63
2023-03-03T14:01:53.898Z,1.40
2023-03-03T14:05:19.965Z,2.55
2023-03-03T14:08:33.981Z,1.50
2023-03-03T14:11:58.981Z,1.55
2023-03-03T14:15:11.936Z,1.80
2023-03-03T14:18:44.984Z,1.47
2023-03-03T14:21:51.929Z,1.63
2023-03-03T14:25:24.048Z,2.37
2023-03-03T14:28:36.083Z,1.85
2023-03-03T14:32:03.344Z,1.40
2023-03-03T14:35:22.113Z,2.43
2023-03-03T14:38:46.042Z,2.07
2023-03-03T14:42:01.159Z,2.70
2023-03-03T14:45:30.752Z,1.10
2023-03-03T14:48:42.091Z,1.75
2023-03-03T14:52:06.089Z,2.80
2023-03-03T14:55:18.076Z,1.07
2023-03-03T14:58:56.111Z,1.63
2023-03-03T15:02:08.157Z,1.33
2023-03-03T15:05:39.091Z,1.53
2023-03-03T15:08:53.155Z,1.60
2023-03-03T15:12:18.217Z,1.30
2023-03-03T15:15:32.161Z,1.23
2023-03-03T15:18:56.210Z,1.43
2023-03-03T15:22:10.221Z,1.47
2023-03-03T15:25:43.424Z,0.80
2023-03-03T15:29:01.242Z,1.20
2023-03-03T15:32:29.657Z,2.05
2023-03-03T15:35:41.277Z,1.83
2023-03-03T15:39:11.200Z,2.50
2023-03-03T15:42:26.276Z,2.83
2023-03-03T15:45:50.280Z,1.73
2023-03-03T15:49:06.273Z,0.83
2023-03-03T15:52:34.263Z,3.50
2023-03-03T15:56:01.248Z,2.10
2023-03-03T15:59:31.329Z,0.83
2023-03-03T16:02:44.295Z,2.83
2023-03-03T16:06:12.376Z,1.00
2023-03-03T16:09:24.334Z,1.15
2023-03-03T16:12:49.264Z,1.20
2023-03-03T16:16:06.390Z,2.47
2023-03-03T16:19:32.362Z,0.70
2023-03-03T16:23:01.383Z,1.67
2023-03-03T16:26:28.378Z,3.67
2023-03-03T16:29:46.366Z,2.45
2023-03-03T16:33:11.348Z,2.03
2023-03-03T16:36:25.351Z,1.53
2023-03-03T16:39:51.383Z,1.10
2023-03-03T16:43:04.417Z,1.73
2023-03-03T16:46:28.490Z,3.83
2023-03-03T16:49:40.487Z,2.60
2023-03-03T16:53:05.434Z,5.70
2023-03-03T16:56:19.430Z,2.73
2023-03-03T16:59:46.528Z,10.43
2023-03-03T17:03:06.480Z,13.20
2023-03-03T17:06:31.536Z,3.25
2023-03-03T17:09:49.534Z,2.75
2023-03-03T17:13:25.555Z,9.10
2023-03-03T17:16:51.463Z,1.80
2023-03-03T17:20:08.562Z,4.07
2023-03-03T17:23:22.568Z,7.87
2023-03-03T17:26:58.574Z,3.10
2023-03-03T17:30:23.549Z,3.37
2023-03-03T17:33:52.546Z,6.73
2023-03-03T17:37:07.676Z,4.50
2023-03-03T17:40:46.565Z,7.40
2023-03-03T17:43:59.595Z,5.83
2023-03-03T17:47:26.658Z,2.83
2023-03-03T17:50:53.651Z,5.47
2023-03-03T17:54:29.685Z,7.25
2023-03-03T17:57:47.659Z,7.73
2023-03-03T18:01:13.657Z,3.03
2023-03-03T18:04:52.640Z,4.37
2023-03-03T18:08:16.758Z,6.95
2023-03-03T18:11:43.780Z,5.05
2023-03-03T18:15:01.710Z,9.15
2023-03-03T18:18:27.694Z,6.20
2023-03-03T18:21:41.741Z,9.60
2023-03-03T18:25:17.814Z,4.03
2023-03-03T18:28:39.766Z,4.60
2023-03-03T18:32:10.833Z,3.40
2023-03-03T18:35:25.901Z,6.60
2023-03-03T18:38:56.760Z,7.40
2023-03-03T18:42:15.800Z,7.00
2023-03-03T18:45:46.792Z,6.70
2023-03-03T18:49:11.836Z,3.60
2023-03-03T18:52:40.841Z,5.53
2023-03-03T18:55:56.943Z,4.30
2023-03-03T18:59:08.856Z,13.30
2023-03-03T19:02:21.886Z,5.37
2023-03-03T19:05:46.890Z,5.40
2023-03-03T19:09:07.820Z,8.70
2023-03-03T19:12:34.994Z,9.30
2023-03-03T19:15:52.927Z,5.50
2023-03-03T19:19:22.919Z,8.53
2023-03-03T19:22:46.925Z,4.33
2023-03-03T19:26:10.948Z,9.20
2023-03-03T19:29:24.900Z,6.20
2023-03-03T19:32:59.922Z,6.85
2023-03-03T19:36:27.971Z,6.13
2023-03-03T19:40:05.973Z,4.75
2023-03-03T19:43:19.988Z,5.53
2023-03-03T19:46:47.998Z,12.10
2023-03-03T19:50:05.084Z,6.30
2023-03-03T19:53:30.013Z,11.05
2023-03-03T19:56:46.062Z,11.45
2023-03-03T20:00:11.036Z,7.45
2023-03-03T20:03:58.023Z,8.40
2023-03-03T20:07:14.084Z,11.25
2023-03-03T20:10:42.117Z,4.63
2023-03-03T20:13:57.115Z,7.73
2023-03-03T20:17:21.124Z,11.90
2023-03-03T20:20:38.103Z,3.70
2023-03-03T20:24:04.122Z,14.20
2023-03-03T20:27:18.117Z,4.10
2023-03-03T20:30:46.085Z,5.55
2023-03-03T20:34:01.151Z,7.93
2023-03-03T20:37:31.116Z,7.27
2023-03-03T20:40:47.184Z,6.57
2023-03-03T20:44:14.187Z,8.37
2023-03-03T20:47:27.140Z,7.80
2023-03-03T20:50:52.159Z,7.33
2023-03-03T20:54:05.195Z,7.35
2023-03-03T20:57:34.217Z,6.10
2023-03-03T21:00:47.251Z,6.95
2023-03-03T21:04:11.269Z,9.45
2023-03-03T21:07:23.256Z,7.85
2023-03-03T21:10:47.250Z,8.97
2023-03-03T21:14:01.284Z,5.50
2023-03-03T21:17:36.263Z,7.75
2023-03-03T21:20:49.281Z,6.55
2023-03-03T21:24:13.324Z,11.90
2023-03-03T21:27:28.337Z,6.95
2023-03-03T21:30:54.318Z,9.27
2023-03-03T21:34:10.315Z,6.93
2023-03-03T21:37:35.374Z,7.67
2023-03-03T21:40:47.362Z,11.07
2023-03-03T21:44:11.350Z,9.05
2023-03-03T21:47:25.361Z,11.90
2023-03-03T21:50:37.346Z,9.30
2023-03-03T21:53:37.444Z,13.13
2023-03-03T21:56:49.342Z,12.60
2023-03-03T21:59:50.413Z,14.17
2023-03-03T22:03:05.387Z,6.90
2023-03-03T22:06:18.422Z,9.30
2023-03-03T22:09:30.383Z,6.57
2023-03-03T22:12:45.442Z,7.23
2023-03-03T22:15:46.504Z,9.90
2023-03-03T22:19:13.510Z,7.73
2023-03-03T22:22:13.450Z,8.85
2023-03-03T22:25:26.482Z,8.87
2023-03-03T22:28:38.453Z,4.87
2023-03-03T22:32:02.515Z,8.80
2023-03-03T22:35:16.451Z,4.70
2023-03-03T22:38:29.530Z,7.35
2023-03-03T22:41:29.502Z,7.85
2023-03-03T22:44:45.457Z,12.53
2023-03-03T22:47:42.555Z,8.85
2023-03-03T22:51:08.638Z,13.27
2023-03-03T22:54:08.664Z,7.70
2023-03-03T22:57:20.616Z,6.30
2023-03-03T23:00:33.588Z,7.35
2023-03-03T23:03:46.596Z,5.65
2023-03-03T23:07:00.579Z,6.15
2023-03-03T23:10:25.640Z,5.63
2023-03-03T23:13:38.557Z,5.60
2023-03-03T23:16:51.610Z,4.15
2023-03-03T23:19:51.695Z,4.97
2023-03-03T23:23:21.629Z,5.47
2023-03-03T23:26:21.700Z,6.70
2023-03-03T23:29:33.708Z,12.37
2023-03-03T23:32:36.699Z,8.45
2023-03-03T23:36:01.722Z,9.17
2023-03-03T23:39:15.677Z,5.00
2023-03-03T23:42:27.787Z,5.35
2023-03-03T23:45:39.732Z,10.50
2023-03-03T23:48:51.800Z,6.45
2023-03-03T23:51:55.761Z,5.87
2023-03-03T23:55:21.783Z,6.57
2023-03-03T23:58:21.759Z,5.73
